Time;durP1;ratioP1;P1;durP2;ratioP2;P2;SDS_P1;SDS_P2;PMS_P1;PMS_P2;Temp;Humidity;BMP_temperature;BMP_pressure;BME280_temperature;BME280_humidity;BME280_pressure;Samples;Min_cycle;Max_cycle;Signal;HPM_P1;HPM_P2
2022/01/29 00:03:42;;;;;;;10.65;4.03;;;4.30;99.90;;;;;;10421682;28;20080;-60
2022/01/29 00:08:44;;;;;;;9.02;3.55;;;4.40;99.90;;;;;;10427790;28;20056;-61
2022/01/29 00:13:46;;;;;;;11.77;3.60;;;4.40;99.90;;;;;;10439439;28;20060;-61
2022/01/29 00:18:47;;;;;;;12.75;4.40;;;4.40;99.90;;;;;;10430702;28;20076;-62
2022/01/29 00:23:49;;;;;;;11.50;4.82;;;4.40;99.90;;;;;;10429302;28;20045;-61
2022/01/29 00:28:51;;;;;;;13.27;4.45;;;4.40;99.90;;;;;;10426226;28;20111;-61
2022/01/29 00:33:53;;;;;;;17.38;5.20;;;4.40;99.90;;;;;;10426160;28;20045;-61
2022/01/29 00:38:55;;;;;;;13.05;4.35;;;4.50;99.90;;;;;;10426681;28;20052;-61
2022/01/29 00:43:57;;;;;;;15.38;5.22;;;4.50;99.90;;;;;;10426822;28;20051;-62
2022/01/29 00:48:58;;;;;;;12.70;5.18;;;4.50;99.90;;;;;;10429466;28;20391;-62
2022/01/29 00:54:00;;;;;;;12.23;4.43;;;4.60;99.90;;;;;;10422218;28;20044;-61
2022/01/29 00:59:02;;;;;;;16.60;4.70;;;4.60;99.90;;;;;;10435864;28;20122;-61
2022/01/29 01:04:04;;;;;;;13.32;4.65;;;4.60;99.90;;;;;;10423332;28;20052;-61
2022/01/29 01:09:05;;;;;;;14.38;4.32;;;4.60;99.90;;;;;;10424672;28;20073;-61
2022/01/29 01:14:07;;;;;;;12.60;4.05;;;4.70;99.90;;;;;;10421565;28;20057;-61
2022/01/29 01:19:09;;;;;;;11.85;4.75;;;4.70;99.90;;;;;;10422320;28;20222;-61
2022/01/29 01:24:13;;;;;;;12.98;5.03;;;4.70;99.90;;;;;;10422555;28;20569;-61
2022/01/29 01:29:15;;;;;;;14.15;4.40;;;4.80;99.90;;;;;;10421487;28;20044;-61
2022/01/29 01:34:22;;;;;;;14.77;4.35;;;4.80;99.90;;;;;;10424208;28;20438;-60
2022/01/29 01:39:32;;;;;;;10.38;4.32;;;4.80;99.90;;;;;;10420901;28;20048;-61
2022/01/29 01:44:39;;;;;;;11.27;3.90;;;4.90;99.90;;;;;;10420143;28;20046;-60
2022/01/29 01:49:41;;;;;;;13.15;4.03;;;4.80;99.90;;;;;;10425480;28;20053;-61
2022/01/29 01:54:43;;;;;;;10.65;3.45;;;4.90;99.90;;;;;;10422973;28;20049;-61
2022/01/29 01:59:45;;;;;;;13.82;4.13;;;4.80;99.90;;;;;;10426697;28;20045;-61
2022/01/29 02:04:47;;;;;;;11.30;3.38;;;4.80;99.90;;;;;;10423309;28;20069;-60
2022/01/29 02:09:48;;;;;;;11.07;3.60;;;4.90;99.90;;;;;;10421819;28;20135;-60
2022/01/29 02:14:51;;;;;;;10.82;3.28;;;4.90;99.90;;;;;;10424055;28;20049;-61
2022/01/29 02:19:53;;;;;;;14.65;4.30;;;4.90;99.90;;;;;;10421009;28;20136;-61
2022/01/29 02:24:54;;;;;;;12.65;3.60;;;4.80;99.90;;;;;;10424332;28;20056;-61
2022/01/29 02:29:56;;;;;;;10.20;3.80;;;4.80;99.90;;;;;;10420799;28;20140;-61
2022/01/29 02:34:58;;;;;;;10.35;3.90;;;4.80;99.90;;;;;;10427366;28;20073;-61
2022/01/29 02:39:59;;;;;;;10.60;3.00;;;4.80;99.90;;;;;;10422174;28;20099;-61
2022/01/29 02:45:01;;;;;;;7.68;2.33;;;4.80;99.90;;;;;;10416265;28;20073;-61
2022/01/29 02:50:03;;;;;;;7.68;3.47;;;4.70;99.90;;;;;;10421635;28;20132;-61
2022/01/29 02:55:06;;;;;;;12.20;3.17;;;4.70;99.90;;;;;;10424802;28;20103;-61
2022/01/29 03:00:10;;;;;;;7.38;2.70;;;4.70;99.90;;;;;;10421910;28;20563;-61
2022/01/29 03:05:12;;;;;;;12.73;3.13;;;4.80;99.90;;;;;;10423710;28;20049;-61
2022/01/29 03:10:14;;;;;;;9.52;3.03;;;4.70;99.90;;;;;;10425643;28;20049;-61
2022/01/29 03:15:16;;;;;;;15.55;3.47;;;4.70;99.90;;;;;;10422774;28;20115;-61
2022/01/29 03:20:17;;;;;;;8.25;2.88;;;4.70;99.90;;;;;;10417912;28;20053;-61
2022/01/29 03:25:19;;;;;;;8.88;3.92;;;4.70;99.90;;;;;;10421368;28;20460;-61
2022/01/29 03:30:21;;;;;;;8.43;3.38;;;4.70;99.90;;;;;;10424224;28;20053;-61
2022/01/29 03:35:23;;;;;;;10.93;4.45;;;4.70;99.90;;;;;;10415928;28;20092;-61
2022/01/29 03:40:25;;;;;;;11.25;3.58;;;4.70;99.90;;;;;;10430786;28;20538;-61
2022/01/29 03:45:26;;;;;;;9.70;3.88;;;4.70;99.90;;;;;;10429545;28;20052;-60
2022/01/29 03:50:29;;;;;;;8.13;3.83;;;4.70;99.90;;;;;;10427352;28;20064;-61
2022/01/29 03:55:30;;;;;;;11.00;4.35;;;4.70;99.90;;;;;;10433971;28;20052;-62
2022/01/29 04:00:32;;;;;;;11.65;3.72;;;4.70;99.90;;;;;;10429946;28;20072;-62
2022/01/29 04:05:34;;;;;;;11.20;4.40;;;4.70;99.90;;;;;;10427423;28;20047;-62
2022/01/29 04:10:36;;;;;;;13.25;3.67;;;4.70;99.90;;;;;;10424686;28;20087;-61
2022/01/29 04:15:38;;;;;;;14.55;4.45;;;4.70;99.90;;;;;;10425571;28;20044;-62
2022/01/29 04:20:39;;;;;;;14.25;4.72;;;4.70;99.90;;;;;;10424396;28;20073;-62
2022/01/29 04:25:41;;;;;;;13.70;5.28;;;4.70;99.90;;;;;;10427464;28;20050;-61
2022/01/29 04:30:51;;;;;;;12.88;5.03;;;4.70;99.90;;;;;;10424568;28;20110;-62
2022/01/29 04:35:53;;;;;;;12.45;4.82;;;4.70;99.90;;;;;;10424116;28;20053;-62
2022/01/29 04:40:56;;;;;;;15.73;4.75;;;4.70;99.90;;;;;;10425638;28;20148;-62
2022/01/29 04:45:58;;;;;;;17.25;5.25;;;4.60;99.90;;;;;;10416745;28;20080;-62
2022/01/29 04:51:00;;;;;;;15.40;5.00;;;4.60;99.90;;;;;;10420282;28;20044;-61
2022/01/29 04:56:02;;;;;;;15.10;5.35;;;4.60;99.90;;;;;;10427378;28;20075;-62
2022/01/29 05:01:04;;;;;;;14.02;4.93;;;4.70;99.90;;;;;;10421527;28;20045;-62
2022/01/29 05:06:09;;;;;;;20.13;5.15;;;4.70;99.90;;;;;;10428295;28;20096;-62
2022/01/29 05:11:14;;;;;;;15.80;5.07;;;4.60;99.90;;;;;;10426499;28;20048;-62
2022/01/29 05:31:52;;;;;;;16.33;5.97;;;4.60;99.90;;;;;;10426375;28;20077;-62
2022/01/29 05:36:54;;;;;;;16.50;5.68;;;4.50;99.90;;;;;;10426553;28;20049;-62
2022/01/29 05:41:57;;;;;;;14.75;4.65;;;4.40;99.90;;;;;;10420829;28;20081;-61
2022/01/29 05:46:59;;;;;;;14.70;4.78;;;4.40;99.90;;;;;;10438262;28;20049;-62
2022/01/29 05:52:01;;;;;;;15.13;5.57;;;4.40;99.90;;;;;;10425023;28;20048;-62
2022/01/29 05:57:02;;;;;;;17.90;5.25;;;4.40;99.90;;;;;;10423697;28;20261;-62
2022/01/29 06:02:04;;;;;;;12.68;4.95;;;4.30;99.90;;;;;;10426135;28;20803;-62
2022/01/29 06:07:06;;;;;;;13.57;5.10;;;4.30;99.90;;;;;;10428185;28;20120;-62
2022/01/29 06:12:08;;;;;;;12.07;4.60;;;4.30;99.90;;;;;;10424659;28;20084;-61
2022/01/29 06:17:11;;;;;;;13.23;3.72;;;4.30;99.90;;;;;;10443579;28;20138;-61
2022/01/29 06:22:13;;;;;;;11.35;3.72;;;4.30;99.90;;;;;;10424746;28;20107;-62
2022/01/29 06:27:15;;;;;;;10.85;3.83;;;4.30;99.90;;;;;;10420255;28;20053;-62
2022/01/29 06:32:17;;;;;;;13.18;4.25;;;4.30;99.90;;;;;;10422840;28;20148;-61
2022/01/29 06:37:19;;;;;;;13.93;3.92;;;4.20;99.90;;;;;;10425696;28;20488;-61
2022/01/29 06:42:23;;;;;;;11.40;4.22;;;4.20;99.90;;;;;;10421053;28;20061;-62
2022/01/29 06:47:25;;;;;;;14.85;4.70;;;4.10;99.90;;;;;;10421574;28;20492;-62
2022/01/29 06:52:27;;;;;;;17.10;4.88;;;4.20;99.90;;;;;;10425213;28;20068;-61
2022/01/29 06:57:28;;;;;;;15.27;4.88;;;4.20;99.90;;;;;;10427087;28;20430;-62
2022/01/29 07:02:39;;;;;;;15.18;4.93;;;4.20;99.90;;;;;;10417832;28;20045;-65
2022/01/29 07:07:40;;;;;;;12.32;4.40;;;4.20;99.90;;;;;;10420174;28;20049;-65
2022/01/29 07:12:42;;;;;;;14.70;4.97;;;4.20;99.90;;;;;;10425122;28;20052;-65
2022/01/29 07:17:44;;;;;;;12.65;4.75;;;4.20;99.90;;;;;;10436242;28;20132;-65
2022/01/29 07:22:45;;;;;;;11.63;3.97;;;4.30;99.90;;;;;;10429360;28;20128;-65
2022/01/29 07:27:47;;;;;;;12.70;4.95;;;4.30;99.90;;;;;;10434572;28;20099;-65
2022/01/29 07:32:49;;;;;;;14.35;4.50;;;4.30;99.90;;;;;;10426978;28;20519;-65
2022/01/29 07:37:50;;;;;;;12.70;4.57;;;4.20;99.90;;;;;;10428542;28;20142;-65
2022/01/29 07:42:52;;;;;;;16.13;5.60;;;4.20;99.90;;;;;;10425895;28;20491;-65
2022/01/29 07:47:54;;;;;;;18.15;6.68;;;4.20;99.90;;;;;;10432831;28;20118;-65
2022/01/29 07:52:57;;;;;;;17.30;5.65;;;4.20;99.90;;;;;;10428605;28;20049;-65
2022/01/29 07:58:02;;;;;;;19.27;6.70;;;4.20;99.90;;;;;;10430560;28;20132;-65
2022/01/29 08:03:09;;;;;;;12.02;5.57;;;4.20;99.90;;;;;;10425973;28;20080;-66
2022/01/29 08:08:11;;;;;;;18.25;5.57;;;4.20;99.90;;;;;;10428407;28;20053;-65
2022/01/29 08:13:13;;;;;;;11.85;4.95;;;4.20;99.90;;;;;;10426291;28;20110;-65
2022/01/29 08:18:15;;;;;;;15.23;5.93;;;4.20;99.90;;;;;;10423002;28;20550;-65
2022/01/29 08:23:16;;;;;;;14.88;5.22;;;4.20;99.90;;;;;;10423935;28;20136;-65
2022/01/29 08:28:18;;;;;;;13.48;5.63;;;4.30;99.90;;;;;;10416748;28;20144;-65
2022/01/29 08:33:20;;;;;;;10.73;4.32;;;4.30;99.90;;;;;;10414660;28;20118;-65
2022/01/29 08:38:21;;;;;;;10.75;4.20;;;4.40;99.90;;;;;;10431175;28;20143;-65
2022/01/29 08:43:23;;;;;;;8.30;3.92;;;4.50;99.90;;;;;;10430853;28;20143;-65
2022/01/29 08:48:25;;;;;;;9.35;4.18;;;4.50;99.90;;;;;;10427704;28;20076;-65
2022/01/29 08:53:27;;;;;;;9.90;3.30;;;4.60;99.90;;;;;;10425347;28;20128;-66
2022/01/29 08:58:28;;;;;;;7.88;3.03;;;4.60;99.90;;;;;;10428330;28;20049;-65
2022/01/29 09:03:30;;;;;;;11.35;3.15;;;4.70;99.90;;;;;;10424936;28;20116;-66
2022/01/29 09:08:32;;;;;;;5.97;2.33;;;4.80;99.90;;;;;;10428874;28;20140;-65
2022/01/29 09:13:34;;;;;;;6.82;2.85;;;4.80;99.90;;;;;;10424853;28;20130;-65
2022/01/29 09:18:36;;;;;;;7.45;2.45;;;4.80;99.90;;;;;;10426421;28;20433;-65
2022/01/29 09:23:37;;;;;;;4.72;1.98;;;4.90;99.90;;;;;;10429122;28;20076;-64
2022/01/29 09:28:39;;;;;;;9.85;3.40;;;4.90;99.90;;;;;;10425519;28;20072;-65
2022/01/29 09:33:41;;;;;;;5.45;2.40;;;4.90;99.90;;;;;;10423220;28;20412;-64
2022/01/29 09:38:42;;;;;;;5.43;2.05;;;5.00;99.90;;;;;;10425996;28;20058;-65
2022/01/29 09:43:46;;;;;;;4.55;2.03;;;5.00;99.90;;;;;;10426627;28;20102;-65
2022/01/29 09:48:48;;;;;;;4.72;1.90;;;5.00;99.90;;;;;;10418102;28;20055;-65
2022/01/29 09:53:50;;;;;;;5.35;1.30;;;5.00;99.90;;;;;;10426705;28;20153;-65
2022/01/29 09:58:53;;;;;;;7.03;2.58;;;5.00;99.90;;;;;;10422520;28;20049;-65
2022/01/29 10:04:13;;;;;;;4.80;1.55;;;5.00;99.90;;;;;;10420279;28;20126;-64
2022/01/29 10:09:33;;;;;;;2.92;1.00;;;5.00;99.90;;;;;;10418247;28;20065;-64
2022/01/29 10:14:59;;;;;;;3.13;1.20;;;5.00;99.90;;;;;;10423543;28;20049;-64
2022/01/29 10:20:29;;;;;;;3.13;1.10;;;5.00;99.90;;;;;;10416076;28;20142;-64
2022/01/29 10:25:34;;;;;;;2.67;0.88;;;5.00;99.90;;;;;;10422171;28;20053;-64
2022/01/29 10:30:49;;;;;;;2.38;0.80;;;5.00;99.90;;;;;;10422063;28;20076;-64
2022/01/29 10:35:53;;;;;;;1.90;0.70;;;5.10;99.90;;;;;;10422504;28;20056;-64
2022/01/29 10:41:23;;;;;;;2.78;0.90;;;5.10;99.90;;;;;;10424419;28;20068;-64
2022/01/29 10:46:31;;;;;;;1.50;0.73;;;5.20;99.90;;;;;;10420015;28;20072;-64
2022/01/29 10:51:35;;;;;;;3.22;0.80;;;5.30;99.90;;;;;;10397897;28;20091;-64
2022/01/29 10:57:03;;;;;;;3.92;1.17;;;5.30;99.90;;;;;;10423376;28;20095;-64
2022/01/29 11:02:08;;;;;;;2.50;0.80;;;5.30;99.90;;;;;;10422137;28;20046;-64
2022/01/29 11:07:16;;;;;;;3.30;1.00;;;5.40;99.90;;;;;;10424868;28;20037;-64
2022/01/29 11:12:26;;;;;;;1.38;0.52;;;5.40;99.90;;;;;;10424212;28;20150;-64
2022/01/29 11:17:30;;;;;;;1.15;0.70;;;5.40;99.90;;;;;;10417196;28;20053;-64
2022/01/29 11:22:40;;;;;;;2.28;0.63;;;5.50;99.90;;;;;;10424580;28;20468;-64
2022/01/29 11:27:42;;;;;;;2.95;0.98;;;5.60;99.90;;;;;;10420403;28;20048;-64
2022/01/29 11:32:45;;;;;;;3.20;0.60;;;5.70;99.90;;;;;;10421632;28;20138;-64
2022/01/29 11:38:04;;;;;;;2.20;1.05;;;5.80;99.90;;;;;;10418934;28;20118;-65
2022/01/29 11:43:22;;;;;;;2.25;0.50;;;5.90;99.90;;;;;;10417444;28;20056;-65
2022/01/29 11:48:27;;;;;;;1.55;0.60;;;6.00;99.90;;;;;;10420214;28;20080;-64
2022/01/29 11:54:01;;;;;;;2.15;0.60;;;6.00;99.90;;;;;;10419856;28;20422;-64
2022/01/29 11:59:23;;;;;;;1.05;0.40;;;6.10;99.90;;;;;;10388385;28;20052;-65
2022/01/29 12:04:47;;;;;;;1.27;0.50;;;6.10;99.90;;;;;;10421950;28;20049;-65
2022/01/29 12:09:53;;;;;;;0.82;0.50;;;6.20;99.90;;;;;;10442892;28;20052;-65
2022/01/29 12:14:57;;;;;;;1.15;0.55;;;6.10;99.90;;;;;;10422841;28;20103;-64
2022/01/29 12:20:01;;;;;;;1.10;0.50;;;6.00;99.90;;;;;;10426322;28;20045;-64
2022/01/29 12:25:12;;;;;;;1.77;0.70;;;6.00;99.90;;;;;;10423122;28;20053;-64
2022/01/29 12:30:20;;;;;;;1.48;0.70;;;5.90;99.90;;;;;;10427768;28;20052;-64
2022/01/29 12:35:38;;;;;;;2.78;1.00;;;5.70;99.90;;;;;;10424706;28;20076;-64
2022/01/29 12:40:49;;;;;;;2.25;0.93;;;5.70;99.90;;;;;;10424039;28;20384;-64
2022/01/29 12:45:52;;;;;;;2.88;1.17;;;5.60;99.90;;;;;;10421415;28;20146;-63
2022/01/29 12:51:04;;;;;;;2.72;0.85;;;5.60;99.90;;;;;;10422219;28;20507;-64
2022/01/29 12:56:11;;;;;;;2.20;0.90;;;5.50;99.90;;;;;;10426686;28;20499;-64
2022/01/29 13:01:17;;;;;;;2.42;1.50;;;5.50;99.90;;;;;;10425809;28;20041;-64
2022/01/29 13:06:20;;;;;;;4.55;1.02;;;5.50;99.90;;;;;;10429363;28;20089;-64
2022/01/29 13:11:28;;;;;;;2.58;1.35;;;5.40;99.90;;;;;;10424706;28;20091;-64
2022/01/29 13:16:33;;;;;;;2.78;1.02;;;5.30;99.90;;;;;;10424314;28;20072;-64
2022/01/29 13:21:35;;;;;;;3.92;1.48;;;5.30;99.90;;;;;;10427605;28;20056;-64
2022/01/29 13:26:37;;;;;;;2.90;1.67;;;5.20;99.90;;;;;;10421333;28;20073;-64
2022/01/29 13:31:46;;;;;;;3.50;1.33;;;5.30;99.90;;;;;;10424306;28;20053;-64
2022/01/29 13:36:48;;;;;;;3.47;1.50;;;5.20;99.90;;;;;;10421374;28;20048;-64
2022/01/29 13:42:16;;;;;;;5.15;1.73;;;5.20;99.90;;;;;;10429698;28;20102;-64
2022/01/29 13:47:18;;;;;;;3.00;1.42;;;5.20;99.90;;;;;;10423493;28;20052;-64
2022/01/29 13:52:23;;;;;;;1.98;0.85;;;5.30;99.90;;;;;;10424967;28;20129;-64
2022/01/29 13:57:24;;;;;;;2.85;1.25;;;5.30;99.90;;;;;;10418871;28;20462;-64
2022/01/29 14:02:26;;;;;;;2.75;1.42;;;5.40;99.90;;;;;;10423788;28;20073;-64
2022/01/29 14:07:30;;;;;;;2.13;1.05;;;5.40;99.90;;;;;;10421639;28;20049;-64
2022/01/29 14:12:47;;;;;;;3.97;1.50;;;5.50;99.90;;;;;;10422399;28;20168;-64
2022/01/29 14:17:48;;;;;;;1.00;0.70;;;5.80;99.90;;;;;;10426807;28;20045;-64
2022/01/29 14:22:50;;;;;;;2.15;0.95;;;5.80;99.90;;;;;;10423196;28;20557;-64
2022/01/29 14:27:52;;;;;;;2.00;0.75;;;5.90;99.90;;;;;;10429563;28;20052;-64
2022/01/29 14:32:53;;;;;;;1.38;0.88;;;6.00;99.90;;;;;;10423130;28;20049;-64
2022/01/29 14:37:55;;;;;;;0.70;0.50;;;6.10;99.90;;;;;;10419321;28;20064;-64
2022/01/29 14:42:57;;;;;;;1.27;0.57;;;6.20;99.90;;;;;;10419431;28;20057;-65
2022/01/29 14:47:58;;;;;;;0.95;0.40;;;6.30;99.90;;;;;;10419112;28;20120;-65
2022/01/29 14:53:00;;;;;;;1.30;0.50;;;6.40;99.90;;;;;;10423116;28;20073;-65
2022/01/29 14:58:02;;;;;;;0.60;0.40;;;6.60;99.90;;;;;;10419167;28;20045;-62
2022/01/29 15:03:03;;;;;;;0.80;0.47;;;6.70;99.90;;;;;;10423758;28;20227;-61
2022/01/29 15:08:07;;;;;;;1.73;0.55;;;6.80;99.90;;;;;;10418677;28;21180;-61
2022/01/29 15:13:09;;;;;;;1.65;0.40;;;6.90;99.90;;;;;;10422043;28;20045;-65
2022/01/29 15:18:10;;;;;;;0.85;0.30;;;7.00;99.90;;;;;;10420704;28;20541;-65
2022/01/29 15:23:18;;;;;;;0.30;0.20;;;7.00;99.90;;;;;;10421036;28;20056;-65
2022/01/29 15:28:20;;;;;;;1.05;0.30;;;7.00;99.90;;;;;;10426704;28;20033;-66
2022/01/29 15:33:22;;;;;;;0.63;0.30;;;7.10;99.90;;;;;;10420693;28;20107;-66
2022/01/29 15:38:30;;;;;;;0.45;0.20;;;7.20;99.90;;;;;;10429193;28;20057;-66
2022/01/29 15:43:33;;;;;;;0.50;0.30;;;7.20;99.90;;;;;;10429879;28;20048;-68
2022/01/29 15:48:37;;;;;;;0.57;0.30;;;7.20;99.90;;;;;;10428510;28;20048;-65
2022/01/29 15:53:38;;;;;;;0.50;0.30;;;7.20;99.90;;;;;;10430830;28;20141;-65
2022/01/29 15:58:40;;;;;;;0.60;0.20;;;7.20;99.90;;;;;;10426399;28;20504;-65
2022/01/29 16:03:42;;;;;;;0.30;0.22;;;7.30;99.90;;;;;;10428653;28;20157;-64
2022/01/29 16:08:46;;;;;;;0.52;0.30;;;7.30;99.90;;;;;;10426613;28;20117;-64
2022/01/29 16:13:48;;;;;;;1.77;0.20;;;7.30;99.90;;;;;;10421430;28;20072;-65
2022/01/29 16:18:50;;;;;;;1.17;0.20;;;7.40;99.90;;;;;;10431119;28;20138;-65
2022/01/29 16:23:51;;;;;;;2.38;0.30;;;7.40;99.90;;;;;;10423574;28;20098;-65
2022/01/29 16:28:53;;;;;;;0.45;0.32;;;7.50;99.90;;;;;;10423246;28;20041;-65
2022/01/29 16:33:55;;;;;;;0.60;0.38;;;7.50;99.90;;;;;;10429713;28;20041;-60
2022/01/29 16:38:56;;;;;;;1.42;0.45;;;7.50;99.90;;;;;;10424242;28;20064;-62
2022/01/29 16:43:58;;;;;;;1.95;0.40;;;7.50;99.90;;;;;;10417643;28;20059;-62
2022/01/29 16:49:00;;;;;;;0.93;0.30;;;7.50;99.90;;;;;;10426865;28;20110;-62
2022/01/29 16:54:03;;;;;;;0.20;0.20;;;7.50;99.90;;;;;;10422285;28;20552;-62
2022/01/29 16:59:05;;;;;;;0.52;0.30;;;7.60;99.90;;;;;;10422303;28;20836;-63
2022/01/29 17:04:06;;;;;;;1.02;0.20;;;7.60;99.90;;;;;;10422750;28;20081;-63
2022/01/29 17:09:08;;;;;;;1.00;0.40;;;7.60;99.90;;;;;;10419853;28;20060;-62
2022/01/29 17:14:10;;;;;;;0.57;0.30;;;7.60;99.90;;;;;;10418005;28;20049;-61
2022/01/29 17:19:13;;;;;;;0.35;0.20;;;7.60;99.90;;;;;;10424987;28;20088;-62
2022/01/29 17:24:15;;;;;;;2.05;0.30;;;7.50;99.90;;;;;;10420150;28;20048;-62
2022/01/29 17:29:16;;;;;;;0.85;0.50;;;7.50;99.90;;;;;;10415469;28;20076;-62
2022/01/29 17:34:18;;;;;;;1.45;0.30;;;7.30;99.90;;;;;;10412129;28;20064;-62
2022/01/29 17:39:20;;;;;;;0.98;0.20;;;7.20;99.90;;;;;;10420201;28;20321;-64
2022/01/29 17:44:22;;;;;;;1.33;0.38;;;7.20;99.90;;;;;;10423939;28;20865;-64
2022/01/29 17:49:24;;;;;;;1.48;0.90;;;7.10;99.90;;;;;;10426669;28;20053;-62
2022/01/29 17:54:26;;;;;;;1.05;0.63;;;7.10;99.90;;;;;;10420875;28;20057;-63
2022/01/29 17:59:27;;;;;;;3.78;0.90;;;7.00;99.90;;;;;;10417943;28;20056;-63
2022/01/29 18:04:29;;;;;;;2.50;0.70;;;7.00;99.90;;;;;;10422291;28;20095;-63
2022/01/29 18:09:31;;;;;;;1.55;0.88;;;7.00;99.90;;;;;;10416120;28;20118;-63
2022/01/29 18:14:33;;;;;;;2.25;0.70;;;6.90;99.90;;;;;;10416210;28;20044;-62
2022/01/29 18:19:35;;;;;;;1.08;0.50;;;6.90;99.90;;;;;;10419555;28;20045;-62
2022/01/29 18:24:36;;;;;;;1.00;0.47;;;6.90;99.90;;;;;;10419324;28;20510;-62
2022/01/29 18:29:38;;;;;;;1.55;0.55;;;6.90;99.90;;;;;;10413582;28;20067;-62
2022/01/29 18:34:55;;;;;;;1.55;0.70;;;7.00;99.90;;;;;;10417928;28;20491;-61
2022/01/29 18:39:58;;;;;;;1.20;0.88;;;7.00;99.90;;;;;;10413990;28;20075;-59
2022/01/29 18:45:17;;;;;;;3.30;1.15;;;7.10;99.90;;;;;;10419466;28;20049;-60
2022/01/29 18:50:19;;;;;;;1.73;1.10;;;7.10;99.90;;;;;;10419651;28;20111;-60
2022/01/29 18:55:20;;;;;;;2.30;0.90;;;7.20;99.90;;;;;;10423504;28;20123;-60
2022/01/29 19:00:22;;;;;;;2.83;1.23;;;7.30;99.90;;;;;;10418453;28;20295;-60
2022/01/29 19:05:24;;;;;;;2.53;1.10;;;7.30;99.90;;;;;;10418819;28;20049;-61
2022/01/29 19:10:26;;;;;;;5.72;1.10;;;7.20;99.90;;;;;;10428694;28;20106;-61
2022/01/29 19:15:33;;;;;;;6.63;1.20;;;7.30;99.90;;;;;;10427273;28;20060;-61
2022/01/29 19:20:35;;;;;;;6.55;1.20;;;7.30;99.90;;;;;;10430025;28;20056;-60
2022/01/29 19:25:37;;;;;;;3.83;1.08;;;7.30;99.90;;;;;;10430624;28;20051;-61
2022/01/29 19:30:39;;;;;;;2.08;0.90;;;7.40;99.90;;;;;;10426352;28;20049;-61
2022/01/29 19:35:42;;;;;;;4.45;0.98;;;7.40;99.90;;;;;;10422665;28;20132;-61
2022/01/29 19:40:45;;;;;;;4.00;1.83;;;7.40;99.90;;;;;;10425043;28;20056;-61
2022/01/29 19:45:47;;;;;;;4.32;1.10;;;7.40;99.90;;;;;;10432722;28;20068;-61
2022/01/29 19:50:48;;;;;;;3.70;1.05;;;7.40;99.90;;;;;;10431058;28;20821;-62
2022/01/29 19:55:50;;;;;;;2.13;0.80;;;7.40;99.90;;;;;;10427171;28;20052;-61
2022/01/29 20:00:55;;;;;;;3.03;1.00;;;7.40;99.90;;;;;;10433596;28;20076;-61
2022/01/29 20:05:57;;;;;;;4.22;0.80;;;7.40;99.90;;;;;;10422133;28;20033;-61
2022/01/29 20:10:59;;;;;;;4.75;1.73;;;7.30;99.90;;;;;;10423612;28;20091;-62
2022/01/29 20:16:01;;;;;;;4.53;1.27;;;7.30;99.90;;;;;;10427183;28;20080;-61
2022/01/29 20:21:03;;;;;;;3.45;0.98;;;7.30;99.90;;;;;;10428511;28;20064;-62
2022/01/29 20:26:05;;;;;;;4.40;1.15;;;7.30;99.90;;;;;;10428576;28;20095;-61
2022/01/29 20:31:11;;;;;;;2.45;1.00;;;7.30;99.90;;;;;;10422983;28;20122;-62
2022/01/29 20:36:18;;;;;;;2.85;1.00;;;7.30;99.90;;;;;;10426958;28;20049;-62
2022/01/29 20:41:19;;;;;;;5.00;0.90;;;7.30;99.90;;;;;;10421025;28;20547;-61
2022/01/29 20:46:21;;;;;;;1.95;0.50;;;7.30;99.90;;;;;;10425534;28;20337;-61
2022/01/29 20:51:23;;;;;;;2.17;0.60;;;7.30;99.90;;;;;;10421258;28;20144;-61
2022/01/29 20:56:25;;;;;;;1.60;0.55;;;7.30;99.90;;;;;;10425415;28;20440;-62
2022/01/29 21:01:26;;;;;;;3.10;0.90;;;7.30;99.90;;;;;;10422603;28;20199;-61
2022/01/29 21:06:30;;;;;;;3.67;1.58;;;7.30;99.90;;;;;;10422348;28;20113;-62
2022/01/29 21:11:35;;;;;;;2.22;1.02;;;7.30;99.90;;;;;;10421708;28;20084;-62
2022/01/29 21:16:37;;;;;;;1.65;0.60;;;7.30;99.90;;;;;;10423640;28;20045;-62
2022/01/29 21:21:41;;;;;;;1.85;0.80;;;7.30;99.90;;;;;;10423542;28;20136;-62
2022/01/29 21:26:51;;;;;;;1.17;0.55;;;7.40;99.90;;;;;;10427282;28;20104;-62
2022/01/29 21:31:53;;;;;;;1.52;0.60;;;7.40;99.90;;;;;;10424570;28;20055;-62
2022/01/29 21:36:57;;;;;;;0.90;0.57;;;7.40;99.90;;;;;;10422509;28;20526;-63
2022/01/29 21:42:00;;;;;;;1.70;0.60;;;7.40;99.90;;;;;;10420437;28;20073;-62
2022/01/29 21:47:02;;;;;;;1.77;0.40;;;7.40;99.90;;;;;;10423404;28;20130;-63
2022/01/29 21:52:05;;;;;;;2.90;0.60;;;7.50;99.90;;;;;;10425672;28;20126;-62
2022/01/29 21:57:07;;;;;;;1.88;0.43;;;7.50;99.90;;;;;;10421681;28;20068;-62
2022/01/29 22:02:09;;;;;;;2.08;0.43;;;7.60;99.90;;;;;;10422388;28;20047;-62
2022/01/29 22:07:12;;;;;;;3.90;0.57;;;7.50;99.90;;;;;;10419411;28;20409;-63
2022/01/29 22:12:15;;;;;;;1.33;0.50;;;7.60;99.90;;;;;;10418175;28;20080;-62
2022/01/29 22:17:17;;;;;;;10.55;1.92;;;7.80;99.90;;;;;;10422263;28;20135;-61
2022/01/29 22:22:19;;;;;;;5.57;1.13;;;8.00;99.90;;;;;;10423698;28;20580;-62
2022/01/29 22:27:22;;;;;;;3.25;1.48;;;8.10;99.90;;;;;;10420864;28;20049;-63
2022/01/29 22:32:24;;;;;;;8.45;0.82;;;8.20;99.90;;;;;;10424678;28;20126;-62
2022/01/29 22:37:26;;;;;;;7.88;1.17;;;8.30;99.90;;;;;;10421546;28;20120;-62
2022/01/29 22:42:28;;;;;;;13.30;0.90;;;8.30;99.90;;;;;;10423517;28;20052;-62
2022/01/29 22:47:30;;;;;;;10.20;1.23;;;8.40;99.90;;;;;;10425195;28;20088;-62
2022/01/29 22:52:34;;;;;;;15.23;0.90;;;8.40;99.90;;;;;;10423446;28;20041;-63
2022/01/29 22:57:36;;;;;;;8.15;0.98;;;8.40;99.90;;;;;;10422288;28;20045;-63
2022/01/29 23:02:38;;;;;;;8.23;1.20;;;8.40;99.90;;;;;;10416287;28;20060;-63
2022/01/29 23:07:43;;;;;;;5.90;0.82;;;8.60;99.90;;;;;;10420493;28;20053;-63
2022/01/29 23:13:00;;;;;;;6.32;0.75;;;8.50;99.90;;;;;;10428093;28;20048;-63
2022/01/29 23:18:02;;;;;;;15.52;0.80;;;8.40;99.90;;;;;;10423888;28;20137;-63
2022/01/29 23:28:33;;;;;;;6.82;1.17;;;8.40;99.90;;;;;;10417870;28;20076;-61
2022/01/29 23:39:03;;;;;;;6.68;1.23;;;8.40;99.90;;;;;;10416106;28;20130;-61
2022/01/29 23:44:10;;;;;;;3.65;0.95;;;8.40;99.90;;;;;;10422612;28;20136;-61
2022/01/29 23:49:25;;;;;;;7.18;0.95;;;8.50;99.90;;;;;;10424048;28;20064;-61
2022/01/29 23:54:27;;;;;;;14.07;1.02;;;8.40;99.90;;;;;;10426654;28;20068;-61
2022/01/29 23:59:29;;;;;;;4.60;0.90;;;8.40;99.90;;;;;;10383106;28;20188;-62
